METAR stanice u blizini

 

LYBE - Beograd / Surčin, Srbija
Ažurirano: 14/10/2019 04:00
Patches of fog, Mist, Delimično oblačno
Patches of fog, Mist, Delimično oblačno
 Pravac vetra SZ
Vetar: SZ 6 km/h
Temperatura: 10°C
Tačka rose: 10°C
Vlažnost: 100%
Pritisak: 1021 hPa
Pregled: Patches of fog, Mist
Oblaci: Partly Cloudy
Vidljivost: 1 km
2019/10/14 02:00 LYBE 140200Z 31003KT 1000 0300NE R12/1900N R30/1500U BCFG BR NSC 10/10 Q1021 BECMG 0200 FG
LYBT - Beograd / Batajnica, Srbija
Ažurirano: 14/10/2019 04:00
Mist, Delimično oblačno
Mist, Delimično oblačno
 Pravac vetra calm
Vetar: Tišina
Temperatura: 8°C
Tačka rose: 8°C
Vlažnost: 100%
Pritisak: 1021 hPa
Pregled: Mist
Oblaci: Partly Cloudy
Vidljivost: 4 km
2019/10/14 02:00 LYBT 140200Z 00000KT 4000 BR NSC 08/08 Q1021 NOSIG
LYVR - Vršac, Srbija
Ažurirano: 13/10/2019 18:00
NOT Current
Vedro
Vedro
 Pravac vetra I
Vetar: I 2 km/h
Temperatura: 21°C
Tačka rose: 12°C
Vlažnost: 57%
Pritisak: 1020 hPa
Pregled: Vedro
Vidljivost: greater than 10 km
2019/10/13 16:00 LYVR 131600Z 09001KT CAVOK 21/12 Q1020 NOSIG
 
LYKV - Lađevci, Srbija
Ažurirano: 14/10/2019 04:00
Vedro
Vedro
 Pravac vetra varies
Vetar: varies 2 km/h
Temperatura: 6°C
Tačka rose: 6°C
Vlažnost: 100%
Pritisak: 1022 hPa
Pregled: Vedro
Vidljivost: greater than 10 km
2019/10/14 02:00 LYKV 140200Z VRB01KT CAVOK 06/06 Q1022 NOSIG
LYNI - Niš, Srbija
Ažurirano: 14/10/2019 04:00
Vedro
Vedro
 Pravac vetra J
Vetar: J 6 km/h
Temperatura: 10°C
Tačka rose: 9°C
Vlažnost: 94%
Pritisak: 1023 hPa
Pregled: Vedro
Vidljivost: greater than 10 km
2019/10/14 02:00 LYNI 140200Z 18003KT 150V210 CAVOK 10/09 Q1023 NOSIG
BKPR - Priština, Srbija
Ažurirano: 14/10/2019 04:00
Vedro
Vedro
 Pravac vetra varies
Vetar: varies 2 km/h
Temperatura: 8°C
Tačka rose: 6°C
Vlažnost: 87%
Pritisak: 1024 hPa
Pregled: Vedro
Vidljivost: greater than 10 km
2019/10/14 02:00 BKPR 140200Z VRB01KT CAVOK 08/06 Q1024 NOSIG
 
LHPP - Pecs / Pogany, Hungary
Ažurirano: 13/10/2019 18:45
NOT Current
Vedro
Vedro
 Pravac vetra JJZ
Vetar: JJZ 6 km/h
Temperatura: 19°C
Tačka rose: 12°C
Vlažnost: 64%
Pritisak: 1021 hPa
Pregled: Vedro
Vidljivost: greater than 10 km
2019/10/13 16:45 LHPP 131645Z 20003KT CAVOK 19/12 Q1021
LHUD - Szeged, Hungary
Ažurirano: 04/07/2019 01:45
NOT Current
Vedro
Vedro
 Pravac vetra S
Vetar: S 7 km/h
Temperatura: 18°C
Tačka rose: 13°C
Vlažnost: 73%
Pritisak: 1019 hPa
Pregled: Vedro
Vidljivost: greater than 10 km
2019/07/03 23:45 LHUD 032345Z 35004KT CAVOK 18/13 Q1019
LRTR - Timisoara, Romania
Ažurirano: 14/10/2019 04:00
Vedro
Vedro
 Pravac vetra IJI
Vetar: IJI 17 km/h
Temperatura: 10°C
Osećaj hladnoće: 8°C
Tačka rose: 8°C
Vlažnost: 88%
Pritisak: 1021 hPa
Pregled: Vedro
Vidljivost: greater than 10 km
2019/10/14 02:00 LRTR 140200Z 11009KT CAVOK 10/08 Q1021
 
LRCV - Craiova, Romania
Ažurirano: 14/10/2019 04:00
Vedro
Vedro
 Pravac vetra S
Vetar: S 7 km/h
Temperatura: 12°C
Tačka rose: 8°C
Vlažnost: 77%
Pritisak: 1022 hPa
Pregled: Vedro
Vidljivost: greater than 10 km
2019/10/14 02:00 LRCV 140200Z 01004KT CAVOK 12/08 Q1022
LBSF - Sofia, Bulgaria
Ažurirano: 14/10/2019 04:00
Partly Cloudy
Partly Cloudy
 Pravac vetra ZJZ
Vetar: ZJZ 4 km/h
Temperatura: 8°C
Tačka rose: 7°C
Vlažnost: 93%
Pritisak: 1024 hPa
Oblaci: Partly Cloudy
Vidljivost: 8 km
2019/10/14 02:00 LBSF 140200Z 25002KT 8000 NSC 08/07 Q1024 TEMPO 5000 BR
LWSK - Skoplje, Makedonija
Ažurirano: 14/10/2019 04:00
Vedro
Vedro
 Pravac vetra I
Vetar: I 4 km/h
Temperatura: 11°C
Tačka rose: 9°C
Vlažnost: 88%
Pritisak: 1024 hPa
Pregled: Vedro
Vidljivost: greater than 10 km
2019/10/14 02:00 LWSK 140200Z 09002KT CAVOK 11/09 Q1024 NOSIG
 
LYPG - Podgorica, Crna Gora
Ažurirano: 14/10/2019 04:00
Vedro
Vedro
 Pravac vetra SSZ
Vetar: SSZ 6 km/h
Temperatura: 14°C
Tačka rose: 10°C
Vlažnost: 77%
Pritisak: 1022 hPa
Pregled: Vedro
Vidljivost: greater than 10 km
2019/10/14 02:00 LYPG 140200Z 33003KT CAVOK 14/10 Q1022 NOSIG
LQSA - Sarajevo, Bosna i Hercegovina
Ažurirano: 14/10/2019 03:00
NOT Current
Partly Cloudy
Partly Cloudy
 Pravac vetra varies
Vetar: varies 2 km/h
Temperatura: 6°C
Tačka rose: 6°C
Vlažnost: 100%
Pritisak: 1024 hPa
Oblaci: Partly Cloudy
Vidljivost: 6 km
2019/10/14 01:00 LQSA 140100Z VRB01KT 6000 NSC 06/06 Q1024
LDOS - Osijek, Hrvatksa
Ažurirano: 14/10/2019 04:00
Vedro
Vedro
 Pravac vetra calm
Vetar: Tišina
Temperatura: 9°C
Tačka rose: 8°C
Vlažnost: 94%
Pritisak: 1021 hPa
Pregled: Vedro
Vidljivost: greater than 10 km
2019/10/14 02:00 LDOS 140200Z 00000KT CAVOK 09/08 Q1021